createdAt,value
2019-02-15T00:01:42.682Z,5.00
2019-02-15T00:04:14.008Z,4.95
2019-02-15T00:06:44.251Z,4.90
2019-02-15T00:09:14.774Z,4.85
2019-02-15T00:11:45.092Z,4.81
2019-02-15T00:14:15.338Z,4.75
2019-02-15T00:16:45.582Z,4.69
2019-02-15T00:19:20.384Z,4.62
2019-02-15T00:21:50.631Z,4.56
2019-02-15T00:24:20.884Z,4.51
2019-02-15T00:26:51.492Z,4.44
2019-02-15T00:29:21.741Z,4.37
2019-02-15T00:31:51.995Z,4.33
2019-02-15T00:34:22.237Z,4.24
2019-02-15T00:36:52.486Z,4.19
2019-02-15T00:39:22.732Z,4.12
2019-02-15T00:41:53.050Z,4.07
2019-02-15T00:44:23.303Z,4.04
2019-02-15T00:46:57.835Z,4.00
2019-02-15T00:49:30.694Z,3.97
2019-02-15T00:52:14.470Z,3.94
2019-02-15T00:54:52.253Z,3.92
2019-02-15T00:57:27.181Z,3.89
2019-02-15T01:00:14.134Z,3.86
2019-02-15T01:02:46.024Z,3.82
2019-02-15T01:05:20.600Z,3.78
2019-02-15T01:07:52.480Z,3.75
2019-02-15T01:10:24.365Z,3.71
2019-02-15T01:12:59.191Z,3.66
2019-02-15T01:15:29.441Z,3.63
2019-02-15T01:17:59.685Z,3.60
2019-02-15T01:20:29.933Z,3.56
2019-02-15T01:23:00.185Z,3.54
2019-02-15T01:25:32.064Z,3.49
2019-02-15T01:28:09.703Z,3.46
2019-02-15T01:30:57.391Z,3.41
2019-02-15T01:33:45.599Z,3.35
2019-02-15T01:36:20.661Z,3.31
2019-02-15T01:38:55.504Z,3.27
2019-02-15T01:41:27.397Z,3.26
2019-02-15T01:43:59.286Z,3.20
2019-02-15T01:46:40.563Z,3.19
2019-02-15T01:49:10.809Z,3.15
2019-02-15T01:51:41.069Z,3.12
2019-02-15T01:54:11.306Z,3.08
2019-02-15T01:56:41.560Z,3.08
2019-02-15T01:59:11.804Z,3.05
2019-02-15T02:01:42.053Z,2.98
2019-02-15T02:04:12.307Z,2.94
2019-02-15T02:06:42.652Z,2.91
2019-02-15T02:09:12.969Z,2.84
2019-02-15T02:11:43.693Z,2.80
2019-02-15T02:14:13.934Z,2.76
2019-02-15T02:16:44.182Z,2.74
2019-02-15T02:19:14.436Z,2.71
2019-02-15T02:21:44.682Z,2.68
2019-02-15T02:24:14.937Z,2.65
2019-02-15T02:26:45.181Z,2.61
2019-02-15T02:29:15.424Z,2.59
2019-02-15T02:31:45.679Z,2.56
2019-02-15T02:34:15.925Z,2.53
2019-02-15T02:36:54.272Z,2.50
2019-02-15T02:39:24.506Z,2.46
2019-02-15T02:41:54.758Z,2.43
2019-02-15T02:44:25.004Z,2.41
2019-02-15T02:46:55.253Z,2.37
2019-02-15T02:49:25.513Z,2.32
2019-02-15T02:51:55.750Z,2.32
2019-02-15T02:54:25.994Z,2.29
2019-02-15T02:56:56.243Z,2.26
2019-02-15T02:59:26.557Z,2.22
2019-02-15T03:01:57.069Z,2.22
2019-02-15T03:04:27.314Z,2.11
2019-02-15T03:06:58.739Z,2.16
2019-02-15T03:09:28.980Z,2.14
2019-02-15T03:11:59.239Z,2.08
2019-02-15T03:14:29.307Z,2.08
2019-02-15T03:16:59.564Z,2.05
2019-02-15T03:19:29.804Z,2.01
2019-02-15T03:22:00.053Z,1.98
2019-02-15T03:24:30.301Z,1.94
2019-02-15T03:27:00.643Z,1.92
2019-02-15T03:29:30.877Z,1.85
2019-02-15T03:32:01.128Z,1.70
2019-02-15T03:34:31.374Z,1.83
2019-02-15T03:37:09.393Z,1.81
2019-02-15T03:39:41.332Z,1.79
2019-02-15T03:42:13.299Z,1.73
2019-02-15T03:44:43.542Z,1.71
2019-02-15T03:47:16.505Z,1.71
2019-02-15T03:49:46.758Z,1.67
2019-02-15T03:52:17.009Z,1.67
2019-02-15T03:54:47.257Z,1.63
2019-02-15T03:57:17.503Z,1.63
2019-02-15T03:59:47.745Z,1.57
2019-02-15T04:02:17.999Z,1.57
2019-02-15T04:04:48.245Z,1.57
2019-02-15T04:07:18.498Z,1.52
2019-02-15T04:09:48.751Z,1.52
2019-02-15T04:12:19.004Z,1.46
2019-02-15T04:14:49.254Z,1.46
2019-02-15T04:17:19.502Z,1.44
2019-02-15T04:19:49.758Z,1.38
2019-02-15T04:22:20.011Z,1.38
2019-02-15T04:24:50.267Z,1.38
2019-02-15T04:27:20.499Z,1.34
2019-02-15T04:29:50.741Z,1.32
2019-02-15T04:32:21.260Z,1.27
2019-02-15T04:34:51.509Z,1.21
2019-02-15T04:37:21.757Z,1.17
2019-02-15T04:39:52.573Z,1.17
2019-02-15T04:42:22.818Z,1.16
2019-02-15T04:44:53.068Z,1.09
2019-02-15T04:47:23.318Z,1.19
2019-02-15T04:49:53.566Z,1.13
2019-02-15T04:52:23.818Z,1.17
2019-02-15T04:54:54.060Z,1.21
2019-02-15T04:57:24.310Z,1.12
2019-02-15T04:59:54.559Z,1.09
2019-02-15T05:02:24.815Z,1.01
2019-02-15T05:04:55.072Z,0.94
2019-02-15T05:07:25.318Z,0.93
2019-02-15T05:09:55.568Z,0.91
2019-02-15T05:12:27.008Z,0.87
2019-02-15T05:14:57.256Z,0.83
2019-02-15T05:17:27.533Z,0.82
2019-02-15T05:19:57.771Z,0.73
2019-02-15T05:22:28.017Z,0.75
2019-02-15T05:24:58.263Z,0.71
2019-02-15T05:27:28.528Z,0.67
2019-02-15T05:29:58.773Z,0.62
2019-02-15T05:32:29.038Z,0.63
2019-02-15T05:34:59.288Z,0.64
2019-02-15T05:37:29.531Z,0.66
2019-02-15T05:39:59.778Z,0.66
2019-02-15T05:42:30.031Z,0.64
2019-02-15T05:45:03.682Z,0.68
2019-02-15T05:47:32.339Z,0.67
2019-02-15T05:50:02.619Z,0.67
2019-02-15T05:52:32.858Z,0.68
2019-02-15T05:55:03.410Z,0.69
2019-02-15T05:57:33.648Z,0.67
2019-02-15T06:00:04.175Z,0.69
2019-02-15T06:02:34.432Z,0.68
2019-02-15T06:05:07.325Z,0.67
2019-02-15T06:07:38.452Z,0.66
2019-02-15T06:10:09.088Z,0.66
2019-02-15T06:12:39.332Z,0.69
2019-02-15T06:15:15.089Z,0.66
2019-02-15T06:17:41.559Z,0.71
2019-02-15T06:20:11.834Z,0.73
2019-02-15T06:22:42.092Z,0.81
2019-02-15T06:25:12.720Z,0.87
2019-02-15T06:27:42.987Z,0.93
2019-02-15T06:30:13.262Z,1.01
2019-02-15T06:32:43.516Z,1.13
2019-02-15T06:35:13.796Z,1.38
2019-02-15T06:37:44.453Z,1.73
2019-02-15T06:40:14.700Z,1.88
2019-02-15T06:42:45.040Z,1.85
2019-02-15T06:45:24.315Z,1.85
2019-02-15T06:47:48.328Z,2.11
2019-02-15T06:50:18.579Z,2.77
2019-02-15T06:52:48.870Z,3.73
2019-02-15T06:55:19.104Z,4.62
2019-02-15T06:57:49.368Z,5.21
2019-02-15T07:00:23.938Z,5.80
2019-02-15T07:02:55.948Z,6.18
2019-02-15T07:05:25.969Z,6.66
2019-02-15T07:07:56.246Z,6.97
2019-02-15T07:10:26.506Z,7.33
2019-02-15T07:12:56.785Z,7.36
2019-02-15T07:15:33.728Z,7.87
2019-02-15T07:18:07.850Z,8.27
2019-02-15T07:20:41.845Z,9.00
2019-02-15T07:23:13.726Z,9.08
2019-02-15T07:25:46.817Z,9.52
2019-02-15T07:28:17.074Z,9.92
2019-02-15T07:30:47.325Z,10.40
2019-02-15T07:33:17.596Z,10.66
2019-02-15T07:35:48.168Z,10.84
2019-02-15T07:38:18.600Z,11.43
2019-02-15T07:40:50.132Z,11.78
2019-02-15T07:43:20.392Z,11.82
2019-02-15T07:45:51.818Z,12.24
2019-02-15T07:48:22.113Z,12.33
2019-02-15T07:50:54.395Z,12.70
2019-02-15T07:53:24.329Z,12.41
2019-02-15T07:55:54.613Z,12.68
2019-02-15T07:58:24.880Z,12.58
2019-02-15T08:00:55.131Z,12.96
2019-02-15T08:03:25.410Z,13.24
2019-02-15T08:05:55.674Z,13.62
2019-02-15T08:08:25.934Z,13.67
2019-02-15T08:10:56.201Z,13.63
2019-02-15T08:13:26.479Z,13.58
2019-02-15T08:15:56.760Z,13.80
2019-02-15T08:18:27.008Z,13.11
2019-02-15T08:20:57.275Z,13.14
2019-02-15T08:23:27.537Z,12.16
2019-02-15T08:25:57.814Z,11.83
2019-02-15T08:28:28.084Z,11.68
2019-02-15T08:30:58.372Z,11.79
2019-02-15T08:33:28.716Z,12.33
2019-02-15T08:35:58.978Z,12.37
2019-02-15T08:38:29.250Z,11.94
2019-02-15T08:40:59.525Z,12.40
2019-02-15T08:43:29.797Z,12.48
2019-02-15T08:46:02.718Z,11.41
2019-02-15T08:48:32.290Z,11.20
2019-02-15T08:51:02.548Z,11.81
2019-02-15T08:53:32.821Z,11.75
2019-02-15T08:56:03.083Z,12.01
2019-02-15T08:58:33.339Z,12.18
2019-02-15T09:01:03.603Z,10.88
2019-02-15T09:03:34.220Z,9.51
2019-02-15T09:06:04.480Z,8.61
2019-02-15T09:08:34.733Z,8.14
2019-02-15T09:11:04.977Z,7.99
2019-02-15T09:13:35.226Z,8.01
2019-02-15T09:16:10.322Z,7.72
2019-02-15T09:18:37.430Z,7.52
2019-02-15T09:21:07.683Z,7.57
2019-02-15T09:23:37.935Z,7.33
2019-02-15T09:26:08.199Z,7.33
2019-02-15T09:28:42.770Z,7.28
2019-02-15T09:31:14.567Z,7.41
2019-02-15T09:33:44.836Z,7.70
2019-02-15T09:36:15.104Z,7.74
2019-02-15T09:38:47.047Z,7.48
2019-02-15T09:41:17.329Z,7.56
2019-02-15T09:43:47.583Z,7.54
2019-02-15T09:46:20.164Z,7.69
2019-02-15T09:48:49.773Z,7.79
2019-02-15T09:51:20.056Z,7.97
2019-02-15T09:53:50.308Z,7.71
2019-02-15T09:56:20.578Z,7.67
2019-02-15T09:58:50.830Z,7.37
2019-02-15T10:01:21.107Z,7.16
2019-02-15T10:03:51.360Z,6.97
2019-02-15T10:06:22.059Z,7.04
2019-02-15T10:08:56.867Z,6.41
2019-02-15T10:11:30.409Z,6.67
2019-02-15T10:14:01.974Z,6.61
2019-02-15T10:16:32.442Z,6.81
2019-02-15T10:19:03.866Z,6.60
2019-02-15T10:21:34.120Z,6.51
2019-02-15T10:24:05.566Z,5.91
2019-02-15T10:26:37.006Z,5.83
2019-02-15T10:29:08.461Z,5.36
2019-02-15T10:31:38.744Z,5.18
2019-02-15T10:34:09.240Z,4.99
2019-02-15T10:36:40.662Z,5.04
2019-02-15T10:39:13.050Z,4.71
2019-02-15T10:41:44.481Z,4.48
2019-02-15T10:44:15.013Z,4.36
2019-02-15T10:46:46.471Z,4.63
2019-02-15T10:49:17.924Z,4.52
2019-02-15T10:51:49.388Z,4.52
2019-02-15T10:54:21.746Z,4.19
2019-02-15T10:56:52.467Z,4.29
2019-02-15T10:59:25.549Z,4.24
2019-02-15T11:01:57.432Z,4.09
2019-02-15T11:04:27.860Z,4.06
2019-02-15T11:06:58.530Z,4.21
2019-02-15T11:09:28.791Z,4.10
2019-02-15T11:11:59.153Z,4.14
2019-02-15T11:14:29.404Z,4.27
2019-02-15T11:16:59.679Z,4.21
2019-02-15T11:19:29.949Z,4.19
2019-02-15T11:22:00.207Z,4.06
2019-02-15T11:24:30.474Z,4.12
2019-02-15T11:27:00.726Z,4.17
2019-02-15T11:29:32.149Z,4.23
2019-02-15T11:32:02.429Z,4.25
2019-02-15T11:34:32.693Z,4.15
2019-02-15T11:37:02.964Z,4.08
2019-02-15T11:39:33.255Z,4.00
2019-02-15T11:42:03.518Z,4.04
2019-02-15T11:44:33.785Z,4.02
2019-02-15T11:47:04.076Z,4.00
2019-02-15T11:49:34.387Z,4.05
2019-02-15T11:52:04.461Z,4.26
2019-02-15T11:54:34.797Z,4.20
2019-02-15T11:57:05.058Z,4.19
2019-02-15T11:59:35.334Z,4.20
2019-02-15T12:02:06.591Z,4.15
2019-02-15T12:04:37.239Z,4.05
2019-02-15T12:07:07.501Z,4.21
2019-02-15T12:09:37.762Z,4.19
2019-02-15T12:12:10.880Z,4.18
2019-02-15T12:14:39.997Z,4.20
2019-02-15T12:17:10.252Z,4.34
2019-02-15T12:19:40.512Z,4.33
2019-02-15T12:22:10.752Z,4.43
2019-02-15T12:24:41.002Z,4.37
2019-02-15T12:27:11.258Z,4.29
2019-02-15T12:29:41.518Z,4.36
2019-02-15T12:32:11.781Z,4.52
2019-02-15T12:34:43.565Z,4.73
2019-02-15T12:37:13.831Z,4.83
2019-02-15T12:39:44.078Z,4.85
2019-02-15T12:42:15.947Z,4.88
2019-02-15T12:44:46.578Z,5.03
2019-02-15T12:47:16.847Z,5.01
2019-02-15T12:49:47.096Z,4.93
2019-02-15T12:52:17.375Z,5.07
2019-02-15T12:54:47.622Z,4.98
2019-02-15T12:57:18.980Z,5.17
2019-02-15T12:59:49.237Z,5.02
2019-02-15T13:02:19.501Z,5.01
2019-02-15T13:04:49.775Z,5.04
2019-02-15T13:07:20.417Z,5.16
2019-02-15T13:09:52.023Z,5.18
2019-02-15T13:12:22.410Z,5.20
2019-02-15T13:14:52.659Z,5.37
2019-02-15T13:17:24.981Z,5.36
2019-02-15T13:19:54.869Z,5.41
2019-02-15T13:22:25.137Z,5.49
2019-02-15T13:24:55.383Z,5.37
2019-02-15T13:27:25.650Z,5.33
2019-02-15T13:29:55.918Z,5.44
2019-02-15T13:32:26.183Z,5.67
2019-02-15T13:34:56.428Z,5.46
2019-02-15T13:37:26.679Z,5.63
2019-02-15T13:39:56.931Z,5.74
2019-02-15T13:42:27.183Z,5.63
2019-02-15T13:44:58.971Z,5.52
2019-02-15T13:47:34.516Z,5.66
2019-02-15T13:50:02.779Z,5.72
2019-02-15T13:52:33.022Z,5.82
2019-02-15T13:55:03.344Z,5.78
2019-02-15T13:57:33.783Z,5.78
2019-02-15T14:00:08.776Z,5.72
2019-02-15T14:02:39.890Z,5.69
2019-02-15T14:05:16.022Z,5.61
2019-02-15T14:07:51.912Z,5.66
2019-02-15T14:10:22.279Z,5.79
2019-02-15T14:12:55.390Z,5.63
2019-02-15T14:15:25.615Z,5.53
2019-02-15T14:17:57.074Z,5.60
2019-02-15T14:20:28.523Z,5.42
2019-02-15T14:22:59.965Z,5.36
2019-02-15T14:25:31.873Z,5.37
2019-02-15T14:28:02.259Z,5.49
2019-02-15T14:30:33.715Z,5.60
2019-02-15T14:33:03.969Z,5.63
2019-02-15T14:35:34.243Z,5.61
2019-02-15T14:38:05.450Z,5.58
2019-02-15T14:40:35.726Z,5.61
2019-02-15T14:43:06.207Z,5.61
2019-02-15T14:45:36.476Z,5.63
2019-02-15T14:48:06.948Z,5.63
2019-02-15T14:50:37.213Z,5.55
2019-02-15T14:53:07.488Z,5.52
2019-02-15T14:55:39.019Z,5.46
2019-02-15T14:58:11.389Z,5.53
2019-02-15T15:00:43.422Z,5.42
2019-02-15T15:03:13.687Z,5.42
2019-02-15T15:05:46.107Z,5.41
2019-02-15T15:08:16.364Z,5.26
2019-02-15T15:10:46.621Z,5.19
2019-02-15T15:13:16.884Z,5.13
2019-02-15T15:15:47.130Z,4.93
2019-02-15T15:18:17.490Z,4.90
2019-02-15T15:20:48.916Z,4.86
2019-02-15T15:23:19.585Z,4.70
2019-02-15T15:25:53.159Z,4.67
2019-02-15T15:28:24.805Z,4.67
2019-02-15T15:30:55.077Z,4.68
2019-02-15T15:33:25.340Z,4.71
2019-02-15T15:35:56.785Z,4.63
2019-02-15T15:38:28.688Z,4.65
2019-02-15T15:41:05.336Z,4.57
2019-02-15T15:43:44.579Z,4.50
2019-02-15T15:46:16.024Z,4.38
2019-02-15T15:48:47.472Z,4.31
2019-02-15T15:51:20.761Z,4.31
2019-02-15T15:53:52.215Z,4.29
2019-02-15T15:56:23.702Z,4.25
2019-02-15T15:58:56.163Z,4.21
2019-02-15T16:01:26.603Z,4.13
2019-02-15T16:03:58.055Z,4.06
2019-02-15T16:06:29.497Z,3.97
2019-02-15T16:08:59.767Z,3.96
2019-02-15T16:11:32.446Z,3.88
2019-02-15T16:14:04.627Z,3.80
2019-02-15T16:16:39.610Z,3.70
2019-02-15T16:19:09.995Z,3.58
2019-02-15T16:21:40.348Z,3.45
2019-02-15T16:24:12.742Z,3.42
2019-02-15T16:26:42.652Z,3.33
2019-02-15T16:29:14.025Z,3.24
2019-02-15T16:31:44.631Z,3.19
2019-02-15T16:34:17.851Z,3.18
2019-02-15T16:36:49.175Z,3.12
2019-02-15T16:39:23.853Z,3.05
2019-02-15T16:41:58.239Z,3.00
2019-02-15T16:44:31.912Z,2.91
2019-02-15T16:47:02.404Z,2.84
2019-02-15T16:49:37.331Z,2.83
2019-02-15T16:52:08.830Z,2.74
2019-02-15T16:54:42.130Z,2.70
2019-02-15T16:57:15.790Z,2.61
2019-02-15T16:59:46.305Z,2.62
2019-02-15T17:02:17.442Z,2.49
2019-02-15T17:04:48.154Z,2.44
2019-02-15T17:07:18.453Z,2.40
2019-02-15T17:09:48.734Z,2.33
2019-02-15T17:12:19.020Z,2.31
2019-02-15T17:14:49.425Z,2.26
2019-02-15T17:17:21.480Z,2.20
2019-02-15T17:19:52.939Z,2.15
2019-02-15T17:22:24.448Z,2.05
2019-02-15T17:24:55.860Z,2.05
2019-02-15T17:27:27.297Z,2.03
2019-02-15T17:29:59.654Z,2.03
2019-02-15T17:32:30.208Z,2.04
2019-02-15T17:35:01.981Z,2.01
2019-02-15T17:37:37.760Z,1.98
2019-02-15T17:40:13.654Z,1.90
2019-02-15T17:42:44.052Z,1.82
2019-02-15T17:45:14.555Z,1.84
2019-02-15T17:47:45.958Z,1.76
2019-02-15T17:50:20.164Z,1.71
2019-02-15T17:52:51.659Z,1.65
2019-02-15T17:55:23.139Z,1.62
2019-02-15T17:57:54.963Z,1.60
2019-02-15T18:00:29.824Z,1.57
2019-02-15T18:03:02.256Z,1.56
2019-02-15T18:05:33.833Z,1.50
2019-02-15T18:08:05.296Z,1.53
2019-02-15T18:10:36.739Z,1.52
2019-02-15T18:13:08.319Z,1.46
2019-02-15T18:15:38.590Z,1.36
2019-02-15T18:18:10.059Z,1.39
2019-02-15T18:20:40.394Z,1.46
2019-02-15T18:23:10.667Z,1.47
2019-02-15T18:25:42.057Z,1.50
2019-02-15T18:28:15.569Z,1.51
2019-02-15T18:30:45.891Z,1.56
2019-02-15T18:33:16.176Z,1.55
2019-02-15T18:35:46.462Z,1.59
2019-02-15T18:38:16.763Z,1.58
2019-02-15T18:40:48.869Z,1.54
2019-02-15T18:43:20.374Z,1.46
2019-02-15T18:45:50.662Z,1.46
2019-02-15T18:48:23.503Z,1.51
2019-02-15T18:50:53.785Z,1.64
2019-02-15T18:53:26.313Z,1.64
2019-02-15T18:55:57.240Z,1.67
2019-02-15T18:58:27.506Z,1.70
2019-02-15T19:00:57.789Z,1.63
2019-02-15T19:03:38.155Z,1.73
2019-02-15T19:06:10.540Z,1.75
2019-02-15T19:08:56.629Z,1.74
2019-02-15T19:11:27.025Z,1.62
2019-02-15T19:13:57.799Z,1.63
2019-02-15T19:16:34.506Z,1.51
2019-02-15T19:19:12.540Z,1.48
2019-02-15T19:21:48.130Z,1.44
2019-02-15T19:24:21.424Z,1.45
2019-02-15T19:26:54.060Z,1.42
2019-02-15T19:29:28.288Z,1.34
2019-02-15T19:32:00.159Z,1.39
2019-02-15T19:34:30.529Z,1.37
2019-02-15T19:37:02.363Z,1.26
2019-02-15T19:39:32.703Z,1.16
2019-02-15T19:42:05.717Z,1.20
2019-02-15T19:44:36.232Z,1.22
2019-02-15T19:47:06.554Z,1.24
2019-02-15T19:49:43.513Z,1.19
2019-02-15T19:52:15.570Z,1.13
2019-02-15T19:54:47.495Z,1.05
2019-02-15T19:57:19.174Z,1.01
2019-02-15T20:00:06.605Z,1.08
2019-02-15T20:02:46.156Z,1.09
2019-02-15T20:05:17.025Z,1.15
2019-02-15T20:07:50.813Z,1.13
2019-02-15T20:10:23.310Z,1.04
2019-02-15T20:12:54.907Z,0.94
2019-02-15T20:15:27.117Z,1.01
2019-02-15T20:17:57.878Z,1.05
2019-02-15T20:20:29.895Z,0.94
2019-02-15T20:23:00.683Z,0.83
2019-02-15T20:25:31.030Z,0.92
2019-02-15T20:28:01.318Z,1.01
2019-02-15T20:30:31.674Z,0.83
2019-02-15T20:33:04.965Z,0.76
2019-02-15T20:35:36.138Z,0.71
2019-02-15T20:38:08.916Z,0.54
2019-02-15T20:40:39.466Z,0.47
2019-02-15T20:43:10.627Z,0.50
2019-02-15T20:45:43.536Z,0.52
2019-02-15T20:48:15.000Z,0.55
2019-02-15T20:50:46.934Z,0.49
2019-02-15T20:53:20.830Z,0.37
2019-02-15T20:55:54.627Z,0.36
2019-02-15T20:58:26.692Z,0.32
2019-02-15T21:00:58.199Z,0.21
2019-02-15T21:03:31.389Z,0.20
2019-02-15T21:06:02.819Z,0.26
2019-02-15T21:08:33.116Z,0.17
2019-02-15T21:11:05.658Z,0.07
2019-02-15T21:13:35.942Z,-0.03
2019-02-15T21:16:06.457Z,-0.05
2019-02-15T21:18:38.584Z,-0.08
2019-02-15T21:21:08.863Z,-0.08
2019-02-15T21:23:42.288Z,-0.08
2019-02-15T21:26:26.978Z,-0.01
2019-02-15T21:28:57.331Z,0.13
2019-02-15T21:31:27.607Z,0.06
2019-02-15T21:33:58.194Z,0.06
2019-02-15T21:36:28.459Z,0.08
2019-02-15T21:39:00.848Z,0.07
2019-02-15T21:41:32.728Z,0.19
2019-02-15T21:44:03.017Z,0.26
2019-02-15T21:46:33.268Z,0.26
2019-02-15T21:49:05.113Z,0.19
2019-02-15T21:51:37.775Z,0.22
2019-02-15T21:54:08.345Z,0.16
2019-02-15T21:56:41.105Z,0.16
2019-02-15T21:59:11.387Z,0.14
2019-02-15T22:01:41.653Z,0.14
2019-02-15T22:04:11.927Z,0.09
2019-02-15T22:06:44.081Z,0.05
2019-02-15T22:09:15.522Z,-0.07
2019-02-15T22:11:45.771Z,-0.07
2019-02-15T22:14:16.059Z,-0.02
2019-02-15T22:16:46.315Z,-0.02
2019-02-15T22:19:16.625Z,0.05
2019-02-15T22:21:46.898Z,-0.08
2019-02-15T22:24:17.190Z,-0.14
2019-02-15T22:26:47.446Z,-0.03
2019-02-15T22:29:17.745Z,-0.03
2019-02-15T22:31:48.082Z,0.04
2019-02-15T22:34:18.314Z,0.05
2019-02-15T22:36:50.110Z,0.01
2019-02-15T22:39:21.241Z,-0.15
2019-02-15T22:41:51.505Z,-0.05
2019-02-15T22:44:21.776Z,-0.17
2019-02-15T22:46:52.039Z,-0.07
2019-02-15T22:49:22.292Z,-0.07
2019-02-15T22:51:52.551Z,-0.07
2019-02-15T22:54:22.805Z,0.02
2019-02-15T22:56:53.129Z,-0.11
2019-02-15T22:59:23.324Z,-0.33
2019-02-15T23:01:53.585Z,-0.40
2019-02-15T23:04:23.844Z,-0.42
2019-02-15T23:06:54.104Z,-0.53
2019-02-15T23:09:25.250Z,-0.53
2019-02-15T23:11:55.526Z,-0.38
2019-02-15T23:14:25.779Z,-0.50
2019-02-15T23:16:56.060Z,-0.73
2019-02-15T23:19:26.321Z,-0.72
2019-02-15T23:21:56.588Z,-0.61
2019-02-15T23:24:26.864Z,-0.65
2019-02-15T23:26:57.131Z,-0.58
2019-02-15T23:29:27.396Z,-0.58
2019-02-15T23:31:57.654Z,-0.51
2019-02-15T23:34:27.926Z,-0.50
2019-02-15T23:36:58.183Z,-0.41
2019-02-15T23:39:29.334Z,-0.55
2019-02-15T23:41:59.597Z,-0.49
2019-02-15T23:44:30.539Z,-0.44
2019-02-15T23:47:00.800Z,-0.39
2019-02-15T23:49:31.087Z,-0.37
2019-02-15T23:52:01.345Z,-0.34
2019-02-15T23:54:31.633Z,-0.38
2019-02-15T23:57:01.887Z,-0.36
2019-02-15T23:59:32.157Z,-0.43
